Taylortown, New Jersey
Current Conditions -  °F | °C
As of 9:00 AM on Monday 24 Nov 2014 (Local Time) from KCDW Reporting Station
Overcast Overcast  
Wind Chill: 65°   Ceiling: 1800
Heat Index: 65°   Visibility: 10mi
Dew Point: 59°   Wind: 8mph
Humidity: 81%   Direction: 220°SW
Pressure: 29.67"   Gusts: NA
Location:  40.929°N, 74.4211°W
Report Text: KCDW 241400Z 22007KT 10SM BKN018 BKN023 OVC050 18/15 A2967 RMK AO2 T01830150
Loading
Personal Weather Stations






























Interactive Weather Map New forecast layout! Learn more

10-Day Weather Forecast

Advertisements
Track Severe Weather on mobile